Time;durP1;ratioP1;P1;durP2;ratioP2;P2;SDS_P1;SDS_P2;PMS_P1;PMS_P2;Temp;Humidity;BMP_temperature;BMP_pressure;BME280_temperature;BME280_humidity;BME280_pressure;Samples;Min_cycle;Max_cycle;Signal;HPM_P1;HPM_P2
2023/04/05 00:01:24;;;;;;;11.70;7.65;;;;;;;1.49;64.14;94490.63;5024604;28;20037;-79
2023/04/05 00:03:56;;;;;;;10.18;7.72;;;;;;;1.56;64.04;94495.25;5024854;28;20456;-80
2023/04/05 00:06:25;;;;;;;12.38;8.82;;;;;;;1.53;64.12;94479.75;5006102;28;20519;-79
2023/04/05 00:08:54;;;;;;;10.80;8.10;;;;;;;1.55;64.01;94475.53;5007948;28;20116;-79
2023/04/05 00:11:24;;;;;;;10.32;7.93;;;;;;;1.54;63.97;94484.00;5021523;28;20113;-79
2023/04/05 00:13:50;;;;;;;9.73;7.20;;;;;;;1.62;63.84;94477.44;5024687;28;20538;-79
2023/04/05 00:16:16;;;;;;;10.25;7.53;;;;;;;1.51;63.98;94479.38;5022041;28;20057;-79
2023/04/05 00:18:48;;;;;;;10.65;7.63;;;;;;;1.58;63.85;94482.09;5023624;28;20025;-79
2023/04/05 00:21:23;;;;;;;9.80;7.18;;;;;;;1.63;63.42;94481.69;5023464;28;20479;-79
2023/04/05 00:23:58;;;;;;;8.32;6.65;;;;;;;1.43;64.12;94481.31;5022492;28;20581;-79
2023/04/05 00:26:24;;;;;;;9.15;6.55;;;;;;;1.51;63.75;94476.69;5029859;28;20072;-80
2023/04/05 00:28:50;;;;;;;9.07;6.55;;;;;;;1.52;63.88;94484.41;5021725;28;20029;-79
2023/04/05 00:31:16;;;;;;;7.45;6.00;;;;;;;1.50;63.68;94485.97;5023939;28;20096;-79
2023/04/05 00:33:41;;;;;;;8.43;6.13;;;;;;;1.39;63.78;94479.78;5027168;28;20025;-80
2023/04/05 00:36:18;;;;;;;8.27;5.60;;;;;;;1.51;63.37;94485.59;5028206;28;20476;-79
2023/04/05 00:38:45;;;;;;;8.45;5.95;;;;;;;1.41;63.68;94477.47;5027372;28;20029;-79
2023/04/05 00:41:12;;;;;;;8.00;5.82;;;;;;;1.24;64.25;94487.16;5025289;28;20033;-78
2023/04/05 00:43:37;;;;;;;8.13;5.30;;;;;;;1.29;63.94;94487.53;5028404;28;20412;-80
2023/04/05 00:46:04;;;;;;;7.72;5.72;;;;;;;1.37;63.96;94484.81;5026262;28;20033;-79
2023/04/05 00:48:29;;;;;;;7.45;5.28;;;;;;;1.24;63.95;94484.44;5027144;28;20025;-79
2023/04/05 00:50:56;;;;;;;8.70;5.78;;;;;;;1.13;64.61;94484.44;5008963;28;20037;-79
2023/04/05 00:53:22;;;;;;;9.10;6.00;;;;;;;1.25;64.37;94481.34;5026439;28;20053;-79
2023/04/05 00:55:48;;;;;;;7.82;5.78;;;;;;;1.32;64.04;94486.78;5027818;28;20482;-79
2023/04/05 00:58:18;;;;;;;8.68;6.10;;;;;;;1.36;64.08;94484.03;5024920;28;20057;-79
2023/04/05 01:00:52;;;;;;;7.97;6.20;;;;;;;1.33;64.07;94491.03;5027874;28;20033;-79
2023/04/05 01:03:19;;;;;;;7.22;5.55;;;;;;;1.27;64.21;94492.56;5024591;28;20064;-78
2023/04/05 01:05:54;;;;;;;8.00;5.70;;;;;;;1.24;64.38;94496.03;5026926;28;20366;-78
2023/04/05 01:08:48;;;;;;;7.65;5.60;;;;;;;1.24;64.46;94495.28;5025599;28;20108;-79
2023/04/05 01:11:14;;;;;;;;;;;;;;;1.24;64.39;94489.84;5025357;28;20033;-77
2023/04/05 01:13:40;;;;;;;5.97;4.68;;;;;;;1.27;64.28;94497.22;5026634;28;19913;-79
2023/04/05 01:16:05;;;;;;;7.22;5.57;;;;;;;1.28;64.01;94496.06;5025645;28;20399;-77
2023/04/05 01:18:31;;;;;;;10.25;6.18;;;;;;;1.33;64.07;94499.16;5028039;28;20033;-77
2023/04/05 01:21:25;;;;;;;6.55;5.22;;;;;;;1.22;64.58;94500.31;5030786;28;20041;-78
2023/04/05 01:24:15;;;;;;;7.05;4.80;;;;;;;1.25;64.30;94494.09;5026566;28;20583;-79
2023/04/05 01:27:08;;;;;;;6.95;4.78;;;;;;;1.12;64.08;94484.84;5027659;28;20061;-80
2023/04/05 01:29:36;;;;;;;5.83;4.30;;;;;;;1.21;64.22;94496.84;5025363;28;20041;-79
2023/04/05 01:32:06;;;;;;;5.82;4.40;;;;;;;1.09;64.23;94496.41;5027677;28;20040;-79
2023/04/05 01:34:31;;;;;;;6.43;4.80;;;;;;;1.05;64.40;94491.03;5026917;28;20033;-79
2023/04/05 01:37:06;;;;;;;6.75;4.57;;;;;;;1.16;64.09;94502.63;5026322;28;20136;-80
2023/04/05 01:39:34;;;;;;;6.05;4.15;;;;;;;1.16;64.02;94496.44;5026199;28;20037;-81
2023/04/05 01:42:00;;;;;;;7.15;5.22;;;;;;;1.13;63.93;94500.69;5023874;28;20108;-78
2023/04/05 01:44:26;;;;;;;6.03;4.63;;;;;;;1.20;63.84;94502.59;5025500;28;20778;-79
2023/04/05 01:46:52;;;;;;;5.97;4.28;;;;;;;1.35;63.30;94512.28;5025503;28;20034;-80
2023/04/05 01:49:17;;;;;;;6.70;4.38;;;;;;;1.36;63.47;94513.06;5027684;28;20026;-80
2023/04/05 01:51:43;;;;;;;6.25;4.43;;;;;;;1.42;63.32;94498.75;5025978;28;20040;-79
2023/04/05 01:54:08;;;;;;;5.57;4.40;;;;;;;1.46;62.62;94496.03;5026431;28;20031;-79
2023/04/05 01:56:34;;;;;;;4.35;3.70;;;;;;;1.35;62.80;94503.41;5025546;28;20188;-80
2023/04/05 01:58:59;;;;;;;4.40;3.58;;;;;;;1.30;62.83;94502.63;5024754;28;20564;-79
2023/04/05 02:01:25;;;;;;;4.68;3.60;;;;;;;1.29;62.86;94503.78;5027058;28;20095;-79
2023/04/05 02:03:50;;;;;;;5.20;4.00;;;;;;;1.41;62.73;94507.25;5023394;28;20076;-79
2023/04/05 02:06:16;;;;;;;7.57;4.20;;;;;;;1.40;62.54;94501.06;5027129;28;20431;-79
2023/04/05 02:08:41;;;;;;;5.15;4.18;;;;;;;1.38;62.57;94502.59;5023617;28;20022;-80
2023/04/05 02:11:06;;;;;;;5.50;3.95;;;;;;;1.41;62.72;94504.56;5025112;28;20109;-79
2023/04/05 02:13:32;;;;;;;4.50;3.42;;;;;;;1.38;62.60;94510.72;5024965;28;20037;-79
2023/04/05 02:15:57;;;;;;;5.15;4.28;;;;;;;1.27;62.99;94505.34;5031078;28;20064;-79
2023/04/05 02:18:28;;;;;;;4.82;3.40;;;;;;;1.38;62.69;94510.72;5009180;28;20055;-79
2023/04/05 02:21:01;;;;;;;4.05;3.50;;;;;;;1.41;62.64;94508.03;5024362;28;20041;-78
2023/04/05 02:23:29;;;;;;;4.72;3.92;;;;;;;1.47;62.50;94508.41;5025614;28;20480;-79
2023/04/05 02:25:54;;;;;;;4.50;4.00;;;;;;;1.38;62.41;94510.72;5007126;28;20037;-79
2023/04/05 02:28:20;;;;;;;4.35;3.58;;;;;;;1.39;62.54;94506.88;5025002;28;20464;-79
2023/04/05 02:30:45;;;;;;;5.82;4.07;;;;;;;1.41;62.33;94513.44;5025583;28;20080;-79
2023/04/05 02:33:11;;;;;;;4.57;4.07;;;;;;;1.40;62.58;94505.72;5025334;28;20022;-79
2023/04/05 02:35:36;;;;;;;5.72;4.30;;;;;;;1.31;62.81;94506.88;5025145;28;20471;-79
2023/04/05 02:38:03;;;;;;;5.20;4.00;;;;;;;1.40;62.74;94508.44;5024129;28;20052;-79
2023/04/05 02:40:29;;;;;;;4.45;3.85;;;;;;;1.40;62.59;94511.91;5025147;28;20408;-79
2023/04/05 02:42:54;;;;;;;5.10;4.28;;;;;;;1.53;62.39;94509.56;5022279;28;20066;-80
2023/04/05 02:45:20;;;;;;;5.00;4.18;;;;;;;1.49;62.51;94514.22;5026106;28;20030;-79
2023/04/05 02:47:45;;;;;;;4.65;3.83;;;;;;;1.45;62.91;94514.22;5023273;28;20124;-79
2023/04/05 02:50:11;;;;;;;5.15;4.03;;;;;;;1.40;62.58;94497.59;5025328;28;20059;-79
2023/04/05 02:52:36;;;;;;;5.82;4.18;;;;;;;1.44;62.53;94509.97;5025870;28;20026;-79
2023/04/05 02:55:04;;;;;;;5.80;4.13;;;;;;;1.40;62.72;94505.72;5021967;28;20071;-79
2023/04/05 02:57:29;;;;;;;4.55;3.88;;;;;;;1.31;63.26;94506.09;5026061;28;20049;-79
2023/04/05 02:59:55;;;;;;;5.57;4.22;;;;;;;1.35;63.28;94500.69;5023421;28;20035;-78
2023/04/05 03:02:20;;;;;;;5.22;4.18;;;;;;;1.50;63.05;94508.41;5024769;28;20111;-78
2023/04/05 03:04:46;;;;;;;4.88;4.00;;;;;;;1.57;62.59;94504.94;5023818;28;20424;-79
2023/04/05 03:07:17;;;;;;;8.15;4.65;;;;;;;1.60;62.72;94506.84;5025749;28;20254;-79
2023/04/05 03:09:45;;;;;;;5.75;4.38;;;;;;;1.66;62.35;94508.00;5024909;28;20036;-78
2023/04/05 03:12:10;;;;;;;5.05;4.35;;;;;;;1.70;62.36;94499.88;5030058;28;20105;-78
2023/04/05 03:14:37;;;;;;;5.22;4.10;;;;;;;1.52;62.84;94511.50;5024629;28;20113;-78
2023/04/05 03:17:03;;;;;;;4.93;4.22;;;;;;;1.52;62.70;94494.47;5005432;28;20068;-79
2023/04/05 03:19:28;;;;;;;6.22;4.60;;;;;;;1.51;62.80;94504.53;5024597;28;20025;-79
2023/04/05 03:21:54;;;;;;;5.82;4.05;;;;;;;1.53;62.77;94504.16;5021957;28;20432;-78
2023/04/05 03:24:20;;;;;;;5.68;4.47;;;;;;;1.51;62.86;94509.19;5024424;28;20033;-78
2023/04/05 03:26:46;;;;;;;5.57;4.00;;;;;;;1.51;62.98;94503.78;5024315;28;20036;-79
2023/04/05 03:29:11;;;;;;;4.30;3.67;;;;;;;1.53;62.70;94502.22;5024652;28;20030;-79
2023/04/05 03:31:37;;;;;;;5.13;4.18;;;;;;;1.49;62.86;94503.38;5025217;28;20036;-79
2023/04/05 03:34:03;;;;;;;6.03;4.13;;;;;;;1.49;62.65;94501.47;5022157;28;20029;-79
2023/04/05 03:36:29;;;;;;;5.05;4.53;;;;;;;1.45;62.85;94503.38;5025793;28;20199;-79
2023/04/05 03:38:55;;;;;;;4.50;4.05;;;;;;;1.45;62.76;94499.91;5021832;28;20025;-79
2023/04/05 03:41:20;;;;;;;4.82;3.83;;;;;;;1.46;62.85;94504.16;5023971;28;20029;-80
2023/04/05 03:43:47;;;;;;;4.88;3.60;;;;;;;1.48;62.67;94510.72;5023545;28;20665;-77
2023/04/05 03:46:13;;;;;;;5.90;3.90;;;;;;;1.50;62.77;94503.00;5023600;28;20026;-75
2023/04/05 03:48:38;;;;;;;6.35;4.55;;;;;;;1.58;62.47;94514.59;5023421;28;20036;-79
2023/04/05 03:51:04;;;;;;;6.45;4.72;;;;;;;1.61;62.44;94511.13;5023807;28;20034;-76
2023/04/05 03:53:29;;;;;;;6.13;4.40;;;;;;;1.64;62.31;94518.47;5025238;28;20460;-77
2023/04/05 03:55:55;;;;;;;5.28;4.00;;;;;;;1.54;62.73;94522.72;5021928;28;20118;-74
2023/04/05 03:58:20;;;;;;;6.15;4.50;;;;;;;1.60;62.41;94526.56;5023771;28;20045;-76
2023/04/05 04:00:46;;;;;;;3.97;3.38;;;;;;;1.66;62.28;94518.81;5021454;28;20036;-78
2023/04/05 04:03:12;;;;;;;4.13;3.33;;;;;;;1.57;62.27;94532.03;5023843;28;20028;-80
2023/04/05 04:05:38;;;;;;;4.88;3.15;;;;;;;1.48;62.71;94523.50;5029547;28;20117;-80
2023/04/05 04:08:07;;;;;;;4.75;3.25;;;;;;;1.54;62.28;94527.38;5027293;28;20053;-80
2023/04/05 04:10:33;;;;;;;3.53;2.97;;;;;;;1.57;62.15;94526.59;5028677;28;20029;-79
2023/04/05 04:12:58;;;;;;;3.65;3.00;;;;;;;1.70;61.78;94549.41;5027158;28;20036;-81
2023/04/05 04:15:24;;;;;;;3.97;3.33;;;;;;;1.78;61.71;94539.34;5027573;28;20510;-79
2023/04/05 04:17:49;;;;;;;4.05;3.20;;;;;;;1.77;62.02;94526.94;5025213;28;20414;-80
2023/04/05 04:20:15;;;;;;;5.13;3.60;;;;;;;1.76;62.23;94533.53;5027735;28;20095;-78
2023/04/05 04:22:40;;;;;;;5.22;3.53;;;;;;;1.72;62.70;94535.47;5026898;28;20025;-81
2023/04/05 04:25:10;;;;;;;4.97;4.07;;;;;;;1.76;62.69;94536.25;5027801;28;20116;-79
2023/04/05 04:27:40;;;;;;;6.75;4.95;;;;;;;1.79;62.46;94533.53;5026622;28;20025;-78
2023/04/05 04:30:11;;;;;;;4.47;3.28;;;;;;;1.67;62.75;94535.88;5027316;28;20025;-79
2023/04/05 04:32:52;;;;;;;4.88;3.72;;;;;;;1.70;63.14;94543.22;5028796;28;20037;-81
2023/04/05 04:35:26;;;;;;;3.78;2.95;;;;;;;1.57;63.42;94534.72;5009969;28;20099;-79
2023/04/05 04:38:02;;;;;;;3.88;3.20;;;;;;;1.74;63.02;94544.00;5027275;28;20037;-81
2023/04/05 04:40:37;;;;;;;3.60;2.75;;;;;;;1.59;63.11;94541.28;5025818;28;20040;-79
2023/04/05 04:43:04;;;;;;;4.18;3.25;;;;;;;1.70;62.88;94546.72;5025668;28;20030;-78
2023/04/05 04:45:33;;;;;;;3.88;3.15;;;;;;;1.75;62.74;94551.72;5027032;28;20036;-76
2023/04/05 04:48:00;;;;;;;4.57;3.35;;;;;;;1.83;62.74;94542.41;5026285;28;20028;-77
2023/04/05 04:50:25;;;;;;;3.45;2.80;;;;;;;1.81;62.49;94541.28;5026790;28;20120;-76
2023/04/05 04:52:51;;;;;;;3.50;2.92;;;;;;;1.69;62.57;94542.44;5025134;28;20044;-76
2023/04/05 04:55:24;;;;;;;3.10;2.72;;;;;;;1.71;62.88;94542.06;5027771;28;20083;-76
2023/04/05 04:57:50;;;;;;;3.53;2.60;;;;;;;1.83;62.61;94550.53;5027173;28;20132;-76
2023/04/05 05:00:16;;;;;;;2.67;2.38;;;;;;;1.85;62.53;94552.88;5026473;28;20029;-78
2023/04/05 05:02:42;;;;;;;4.07;2.60;;;;;;;1.88;62.21;94538.53;5029920;28;20409;-77
2023/04/05 05:05:09;;;;;;;2.88;2.15;;;;;;;1.76;62.33;94552.50;5026112;28;20537;-75
2023/04/05 05:07:35;;;;;;;2.75;2.33;;;;;;;1.71;62.58;94534.69;5026283;28;20415;-77
2023/04/05 05:10:01;;;;;;;2.75;2.13;;;;;;;1.68;62.66;94538.19;5024173;28;20029;-77
2023/04/05 05:12:26;;;;;;;3.22;2.13;;;;;;;1.54;62.68;94540.91;5027807;28;20503;-78
2023/04/05 05:14:52;;;;;;;2.42;1.85;;;;;;;1.48;63.11;94539.75;5026401;28;20057;-78
2023/04/05 05:17:17;;;;;;;3.00;1.95;;;;;;;1.56;62.99;94550.22;5025650;28;20037;-78
2023/04/05 05:19:44;;;;;;;2.53;1.95;;;;;;;1.62;62.95;94552.53;5026005;28;20044;-79
2023/04/05 05:22:09;;;;;;;2.33;1.63;;;;;;;1.54;62.54;94543.63;5024528;28;20630;-78
2023/04/05 05:24:35;;;;;;;2.78;2.05;;;;;;;1.69;62.13;94560.66;5009941;28;20025;-79
2023/04/05 05:27:01;;;;;;;2.33;2.03;;;;;;;1.68;62.26;94562.59;5025598;28;20039;-79
2023/04/05 05:29:26;;;;;;;2.58;1.70;;;;;;;1.71;62.32;94556.38;5027501;28;20026;-79
2023/04/05 05:31:52;;;;;;;1.95;1.75;;;;;;;1.81;62.04;94560.25;5024358;28;20076;-78
2023/04/05 05:34:18;;;;;;;3.60;2.55;;;;;;;1.83;62.15;94564.09;5026200;28;20029;-79
2023/04/05 05:36:43;;;;;;;2.92;1.83;;;;;;;1.73;62.06;94564.91;5026210;28;20363;-79
2023/04/05 05:39:08;;;;;;;4.40;2.40;;;;;;;1.78;61.92;94556.38;5025244;28;20500;-79
2023/04/05 05:41:34;;;;;;;2.92;2.00;;;;;;;1.96;61.85;94561.00;5025694;28;20392;-79
2023/04/05 05:43:59;;;;;;;3.55;2.38;;;;;;;2.04;61.29;94555.16;5024460;28;20471;-76
2023/04/05 05:46:25;;;;;;;3.35;1.95;;;;;;;1.92;61.13;94554.81;5027482;28;20440;-77
2023/04/05 05:48:50;;;;;;;2.45;2.05;;;;;;;2.05;60.47;94553.22;5025164;28;20036;-76
2023/04/05 05:51:16;;;;;;;3.22;2.08;;;;;;;1.98;60.59;94554.03;5027461;28;20065;-76
2023/04/05 05:53:43;;;;;;;2.53;2.00;;;;;;;2.12;60.63;94559.41;5023864;28;20025;-75
2023/04/05 05:56:10;;;;;;;2.63;1.90;;;;;;;2.21;60.22;94555.50;5026498;28;20045;-75
2023/04/05 05:58:35;;;;;;;3.13;2.22;;;;;;;2.27;59.86;94553.94;5025136;28;20040;-75
2023/04/05 06:01:02;;;;;;;3.13;2.30;;;;;;;2.31;59.80;94554.72;5025550;28;20033;-75
2023/04/05 06:03:29;;;;;;;3.05;2.08;;;;;;;2.40;59.44;94555.81;5027017;28;20036;-77
2023/04/05 06:05:56;;;;;;;2.38;1.83;;;;;;;2.43;59.00;94558.94;5024687;28;20025;-76
2023/04/05 06:08:23;;;;;;;2.40;1.77;;;;;;;2.32;58.96;94551.59;5026565;28;20492;-76
2023/04/05 06:10:49;;;;;;;5.07;2.60;;;;;;;2.42;59.17;94563.59;5023242;28;20040;-75
2023/04/05 06:13:14;;;;;;;2.22;1.80;;;;;;;2.46;59.11;94568.97;5027033;28;20116;-74
2023/04/05 06:15:41;;;;;;;2.65;2.20;;;;;;;2.36;58.84;94560.50;5025652;28;20499;-75
2023/04/05 06:18:07;;;;;;;3.17;1.95;;;;;;;2.32;58.85;94562.44;5024528;28;20040;-75
2023/04/05 06:20:32;;;;;;;2.00;1.73;;;;;;;2.39;58.71;94567.84;5008640;28;20152;-75
2023/04/05 06:22:58;;;;;;;5.32;1.98;;;;;;;2.36;58.79;94567.88;5023397;28;20108;-75
2023/04/05 06:25:23;;;;;;;2.60;2.03;;;;;;;2.49;58.34;94579.06;5026939;28;20034;-75
2023/04/05 06:27:48;;;;;;;3.22;2.42;;;;;;;2.59;57.93;94578.25;5024379;28;20029;-75
2023/04/05 06:30:14;;;;;;;3.63;1.90;;;;;;;2.61;57.92;94573.19;5026470;28;20037;-75
2023/04/05 06:32:39;;;;;;;2.42;2.08;;;;;;;2.78;57.55;94574.28;5023359;28;20026;-74
2023/04/05 06:35:05;;;;;;;3.38;2.15;;;;;;;2.87;57.49;94577.34;5024843;28;20044;-75
2023/04/05 06:37:31;;;;;;;4.65;2.20;;;;;;;2.89;57.62;94572.28;5024482;28;20022;-75
2023/04/05 06:39:58;;;;;;;4.05;2.10;;;;;;;2.95;57.10;94578.84;5023265;28;20040;-76
2023/04/05 06:42:24;;;;;;;2.22;1.70;;;;;;;3.03;56.35;94582.28;5025229;28;20480;-75
2023/04/05 06:44:49;;;;;;;2.85;1.88;;;;;;;3.18;56.46;94581.81;5023865;28;20030;-76
2023/04/05 06:47:15;;;;;;;1.67;1.33;;;;;;;3.30;56.54;94579.81;5026507;28;20100;-76
2023/04/05 06:49:40;;;;;;;2.42;1.80;;;;;;;3.41;55.50;94592.16;5022965;28;20520;-76
2023/04/05 06:52:06;;;;;;;2.00;1.70;;;;;;;3.40;55.19;94598.75;5028279;28;20485;-76
2023/04/05 06:54:32;;;;;;;1.80;1.40;;;;;;;3.42;55.08;94603.78;5023903;28;20040;-75
2023/04/05 06:56:58;;;;;;;2.35;1.73;;;;;;;3.49;54.79;94598.31;5025167;28;20068;-75
2023/04/05 06:59:23;;;;;;;2.88;1.55;;;;;;;3.54;54.71;94603.31;5024622;28;20460;-76
2023/04/05 07:01:49;;;;;;;2.90;1.45;;;;;;;3.56;54.46;94594.78;5006290;28;20430;-75
2023/04/05 07:04:14;;;;;;;2.78;1.60;;;;;;;3.64;54.10;94610.63;5026161;28;20056;-75
2023/04/05 07:06:40;;;;;;;2.42;1.58;;;;;;;3.55;54.51;94606.81;5023669;28;20029;-76
2023/04/05 07:09:06;;;;;;;2.05;1.50;;;;;;;3.76;54.09;94620.25;5024611;28;20072;-76
2023/04/05 07:11:35;;;;;;;2.40;1.30;;;;;;;3.82;54.08;94617.88;5022768;28;20488;-76
2023/04/05 07:14:00;;;;;;;2.10;1.58;;;;;;;3.90;53.94;94622.88;5025424;28;20079;-77
2023/04/05 07:16:26;;;;;;;1.88;1.33;;;;;;;3.93;53.95;94627.50;5025317;28;20029;-77
2023/04/05 07:18:51;;;;;;;2.08;1.83;;;;;;;3.85;54.04;94614.38;5022635;28;20021;-75
2023/04/05 07:21:16;;;;;;;2.22;1.85;;;;;;;3.73;54.14;94619.13;5024327;28;20036;-77
2023/04/05 07:23:42;;;;;;;2.53;1.80;;;;;;;3.80;54.18;94626.44;5021934;28;20088;-77
2023/04/05 07:26:07;;;;;;;1.60;1.50;;;;;;;3.78;54.17;94636.94;5024289;28;20105;-76
2023/04/05 07:28:34;;;;;;;3.05;1.67;;;;;;;3.76;54.48;94631.13;5022037;28;20017;-76
2023/04/05 07:31:01;;;;;;;2.70;1.88;;;;;;;3.83;53.70;94625.63;5025619;28;20060;-76
2023/04/05 07:33:26;;;;;;;2.13;1.80;;;;;;;3.78;53.86;94638.88;5023075;28;20345;-78
2023/04/05 07:35:55;;;;;;;3.83;1.73;;;;;;;3.76;53.59;94628.41;5023284;28;20036;-77
2023/04/05 07:38:21;;;;;;;4.40;1.50;;;;;;;3.71;54.14;94632.31;5024153;28;20033;-76
2023/04/05 07:40:50;;;;;;;1.70;1.50;;;;;;;3.57;53.87;94620.78;5022437;28;20030;-76
2023/04/05 07:43:17;;;;;;;3.17;1.48;;;;;;;3.60;53.97;94639.00;5027979;28;20029;-77
2023/04/05 07:45:42;;;;;;;1.50;1.30;;;;;;;3.50;53.94;94637.91;5012874;28;20033;-77
2023/04/05 07:48:08;;;;;;;1.42;1.33;;;;;;;3.31;54.22;94638.41;5012694;28;20112;-77
2023/04/05 07:50:33;;;;;;;1.90;1.70;;;;;;;3.30;54.50;94636.88;5009994;28;20095;-78
2023/04/05 07:52:59;;;;;;;1.65;1.35;;;;;;;3.29;54.43;94652.41;5027524;28;20619;-76
2023/04/05 07:55:26;;;;;;;2.50;1.77;;;;;;;3.40;54.61;94653.13;5029310;28;20029;-77
2023/04/05 07:57:52;;;;;;;3.83;1.73;;;;;;;3.52;54.24;94661.97;5027466;28;20045;-78
2023/04/05 08:00:18;;;;;;;2.78;1.60;;;;;;;3.38;54.07;94666.34;5011581;28;20460;-77
2023/04/05 08:02:43;;;;;;;1.75;1.50;;;;;;;3.40;54.19;94663.22;5027392;28;20072;-78
2023/04/05 08:05:09;;;;;;;2.05;1.77;;;;;;;3.47;54.01;94665.88;5027918;28;20100;-78
2023/04/05 08:07:34;;;;;;;2.60;2.05;;;;;;;3.34;54.28;94673.72;5027197;28;20033;-78
2023/04/05 08:10:00;;;;;;;3.50;1.65;;;;;;;3.41;54.20;94670.19;5027613;28;20034;-77
2023/04/05 08:12:26;;;;;;;2.05;1.67;;;;;;;3.35;54.13;94672.53;5028036;28;20029;-79
2023/04/05 08:14:51;;;;;;;3.63;1.92;;;;;;;3.46;54.18;94670.53;5010147;28;20026;-77
2023/04/05 08:17:17;;;;;;;1.83;1.42;;;;;;;3.34;53.84;94668.28;5028746;28;20041;-78
2023/04/05 08:19:42;;;;;;;2.45;1.70;;;;;;;3.32;54.28;94669.84;5027113;28;20033;-77
2023/04/05 08:22:07;;;;;;;2.90;1.80;;;;;;;3.35;54.24;94679.94;5027349;28;20475;-77
2023/04/05 08:24:33;;;;;;;2.45;2.03;;;;;;;3.34;54.36;94672.94;5026574;28;20029;-77
2023/04/05 08:26:58;;;;;;;2.47;1.77;;;;;;;3.28;54.52;94683.47;5028825;28;20029;-76
2023/04/05 08:29:24;;;;;;;2.30;2.00;;;;;;;3.38;54.07;94676.41;5025436;28;20034;-77
2023/04/05 08:31:49;;;;;;;2.55;2.15;;;;;;;3.29;53.82;94690.44;5027005;28;20091;-76
2023/04/05 08:34:15;;;;;;;3.67;1.95;;;;;;;3.34;53.99;94687.31;5027806;28;20467;-77
2023/04/05 08:36:40;;;;;;;2.85;1.65;;;;;;;3.33;54.07;94680.34;5027080;28;20036;-77
2023/04/05 08:39:05;;;;;;;1.90;1.65;;;;;;;3.43;54.14;94676.75;5028845;28;20403;-77
2023/04/05 08:41:35;;;;;;;2.72;2.10;;;;;;;3.56;54.01;94693.41;5028104;28;20056;-76
2023/04/05 08:44:04;;;;;;;2.60;1.77;;;;;;;3.51;53.50;94680.22;5028899;28;20029;-76
2023/04/05 08:46:34;;;;;;;2.10;1.67;;;;;;;3.61;53.47;94690.28;5024966;28;20029;-75
2023/04/05 08:49:06;;;;;;;3.05;2.33;;;;;;;3.71;54.06;94691.34;5027037;28;20529;-74
2023/04/05 08:51:32;;;;;;;5.50;2.30;;;;;;;3.64;54.60;94692.19;5026332;28;20595;-76
2023/04/05 08:54:00;;;;;;;3.03;2.33;;;;;;;3.73;54.60;94689.81;5025537;28;20108;-77
2023/04/05 08:56:32;;;;;;;1.90;1.67;;;;;;;3.76;54.66;94688.22;5026669;28;20119;-77
2023/04/05 08:59:02;;;;;;;2.80;2.17;;;;;;;3.83;54.66;94696.31;5024471;28;20485;-76
2023/04/05 09:01:29;;;;;;;2.10;1.80;;;;;;;3.88;54.21;94698.63;5026697;28;20056;-77
2023/04/05 09:03:59;;;;;;;2.40;2.15;;;;;;;3.90;53.96;94709.91;5024817;28;20049;-76
2023/04/05 09:06:27;;;;;;;2.25;1.95;;;;;;;3.72;54.16;94703.78;5026262;28;20025;-75
2023/04/05 09:08:54;;;;;;;3.47;2.67;;;;;;;3.58;54.28;94706.59;5027467;28;20025;-76
2023/04/05 09:11:20;;;;;;;2.55;1.92;;;;;;;3.67;54.56;94712.34;5024967;28;20032;-76
2023/04/05 09:13:45;;;;;;;2.78;2.13;;;;;;;3.68;54.61;94706.53;5010491;28;20029;-77
2023/04/05 09:16:14;;;;;;;2.50;2.20;;;;;;;3.79;54.52;94702.97;5024304;28;20480;-76
2023/04/05 09:18:40;;;;;;;2.58;1.80;;;;;;;3.79;54.15;94725.50;5026696;28;20599;-77
2023/04/05 09:21:05;;;;;;;3.00;2.28;;;;;;;3.80;53.94;94721.59;5024173;28;20097;-77
2023/04/05 09:23:33;;;;;;;4.05;2.10;;;;;;;3.77;53.47;94716.94;5027202;28;20150;-76
2023/04/05 09:25:58;;;;;;;2.35;2.05;;;;;;;3.76;53.50;94717.34;5025319;28;20484;-78
2023/04/05 09:28:39;;;;;;;2.97;2.28;;;;;;;3.92;53.12;94717.66;5025564;28;20029;-76
2023/04/05 09:31:04;;;;;;;6.43;2.65;;;;;;;3.83;53.22;94709.91;5026295;28;20034;-77
2023/04/05 09:33:30;;;;;;;3.25;2.90;;;;;;;3.68;52.86;94706.53;5025297;28;20033;-77
2023/04/05 09:35:56;;;;;;;3.50;2.78;;;;;;;3.72;53.01;94706.50;5027102;28;20041;-76
2023/04/05 09:38:41;;;;;;;4.38;2.33;;;;;;;3.62;52.86;94704.63;5024651;28;20033;-77
2023/04/05 09:41:09;;;;;;;3.25;2.55;;;;;;;3.69;53.28;94699.91;5026049;28;20029;-77
2023/04/05 09:43:40;;;;;;;3.78;2.70;;;;;;;3.87;53.27;94707.19;5025516;28;20112;-77
2023/04/05 09:46:06;;;;;;;3.45;2.75;;;;;;;3.74;53.47;94704.16;5024340;28;20033;-77
2023/04/05 09:48:45;;;;;;;3.80;2.85;;;;;;;3.87;52.80;94699.03;5025955;28;20411;-77
2023/04/05 09:51:10;;;;;;;2.80;2.35;;;;;;;3.81;51.84;94695.97;5023628;28;20125;-77
2023/04/05 09:53:36;;;;;;;4.18;3.10;;;;;;;3.76;51.34;94704.53;5027207;28;20033;-76
2023/04/05 09:56:09;;;;;;;4.32;3.03;;;;;;;3.56;51.76;94708.94;5024017;28;20095;-75
2023/04/05 09:58:35;;;;;;;3.53;2.70;;;;;;;3.45;51.96;94709.78;5024931;28;20373;-75
2023/04/05 10:01:03;;;;;;;3.78;3.13;;;;;;;3.32;51.62;94707.88;5025134;28;20030;-78
2023/04/05 10:03:29;;;;;;;4.55;3.05;;;;;;;3.36;51.77;94706.69;5006990;28;20033;-75
2023/04/05 10:05:55;;;;;;;4.07;2.92;;;;;;;3.28;51.60;94707.91;5026616;28;20030;-75
2023/04/05 10:08:22;;;;;;;4.80;3.10;;;;;;;3.48;51.26;94705.47;5023049;28;20022;-75
2023/04/05 10:10:49;;;;;;;4.43;3.22;;;;;;;3.53;50.58;94707.78;5026984;28;20037;-77
2023/04/05 10:13:15;;;;;;;6.00;3.78;;;;;;;3.69;49.81;94705.34;5007053;28;20025;-76
2023/04/05 10:15:44;;;;;;;4.85;3.70;;;;;;;3.69;50.15;94705.34;5026244;28;20029;-76
2023/04/05 10:18:16;;;;;;;5.15;3.63;;;;;;;3.97;49.66;94703.63;5024796;28;20644;-76
2023/04/05 10:20:46;;;;;;;4.65;3.28;;;;;;;4.12;49.34;94694.16;5023300;28;20033;-75
2023/04/05 10:23:23;;;;;;;4.53;3.45;;;;;;;4.36;49.19;94702.53;5025178;28;20025;-75
2023/04/05 10:25:49;;;;;;;4.90;3.60;;;;;;;4.66;48.32;94705.38;5022874;28;20053;-77
2023/04/05 10:28:29;;;;;;;4.28;3.40;;;;;;;4.90;47.40;94702.78;5026724;28;20472;-76
2023/04/05 10:31:01;;;;;;;4.03;3.20;;;;;;;4.84;47.71;94694.28;5024412;28;20021;-75
2023/04/05 10:33:35;;;;;;;3.95;3.08;;;;;;;4.98;47.68;94702.28;5025505;28;20031;-76
2023/04/05 10:36:04;;;;;;;4.30;3.78;;;;;;;4.92;47.55;94697.69;5022856;28;20052;-75
2023/04/05 10:38:50;;;;;;;4.88;4.18;;;;;;;4.99;47.31;94694.91;5018318;28;20087;-75
2023/04/05 10:41:15;;;;;;;4.80;3.67;;;;;;;5.16;47.41;94712.22;5019844;28;20029;-76
2023/04/05 10:43:42;;;;;;;4.15;3.50;;;;;;;5.39;46.67;94706.91;5019765;28;20025;-76
2023/04/05 10:46:09;;;;;;;5.50;4.18;;;;;;;5.39;46.51;94689.75;5024245;28;20030;-77
2023/04/05 10:48:48;;;;;;;5.70;4.13;;;;;;;5.50;46.28;94704.78;5021550;28;20345;-79
2023/04/05 10:51:14;;;;;;;4.55;3.95;;;;;;;5.51;46.05;94706.34;5010555;28;20029;-78
2023/04/05 10:53:40;;;;;;;5.13;4.22;;;;;;;5.29;45.97;94703.13;5024645;28;20033;-78
2023/04/05 10:56:07;;;;;;;5.93;4.18;;;;;;;5.18;46.24;94704.44;5022590;28;20084;-76
2023/04/05 10:58:33;;;;;;;5.80;3.75;;;;;;;5.20;46.49;94691.16;5025852;28;20025;-77
2023/04/05 11:00:59;;;;;;;4.97;4.03;;;;;;;5.04;46.35;94708.84;5022790;28;20550;-77
2023/04/05 11:03:50;;;;;;;4.85;3.55;;;;;;;5.25;46.69;94705.09;5025305;28;20186;-77
2023/04/05 11:06:23;;;;;;;4.53;3.40;;;;;;;5.92;45.72;94710.13;5024754;28;20033;-77
2023/04/05 11:08:54;;;;;;;4.90;4.22;;;;;;;6.65;44.01;94712.84;5023492;28;20110;-78
2023/04/05 11:11:21;;;;;;;5.53;4.00;;;;;;;7.65;42.18;94721.88;5008222;28;20498;-75
2023/04/05 11:13:51;;;;;;;4.78;4.05;;;;;;;8.53;39.99;94717.56;5022571;28;20079;-77
2023/04/05 11:16:16;;;;;;;4.22;3.72;;;;;;;8.66;39.05;94723.13;5024686;28;20120;-78
2023/04/05 11:18:49;;;;;;;4.10;3.38;;;;;;;9.04;38.55;94712.38;5023740;28;20109;-79
2023/04/05 11:21:24;;;;;;;4.28;3.85;;;;;;;10.31;36.43;94712.63;5022718;28;20022;-78
2023/04/05 11:24:02;;;;;;;4.18;3.78;;;;;;;11.56;34.03;94721.44;5024437;28;20111;-80
2023/04/05 11:26:43;;;;;;;4.50;3.58;;;;;;;11.59;32.61;94710.31;5025437;28;20029;-77
2023/04/05 11:29:11;;;;;;;3.95;3.47;;;;;;;11.76;33.57;94718.38;5027585;28;20025;-76
2023/04/05 11:31:58;;;;;;;3.92;3.53;;;;;;;12.81;31.36;94719.44;5024687;28;20033;-79
2023/04/05 11:34:24;;;;;;;3.92;3.53;;;;;;;13.34;30.25;94711.72;5022141;28;20112;-74
2023/04/05 11:36:50;;;;;;;7.25;3.65;;;;;;;13.69;29.73;94712.16;5024407;28;20076;-75
2023/04/05 11:39:18;;;;;;;5.40;3.67;;;;;;;13.10;30.21;94703.25;5023646;28;20029;-80
2023/04/05 11:41:56;;;;;;;6.15;3.42;;;;;;;12.63;30.83;94718.19;5025625;28;20052;-79
2023/04/05 11:44:23;;;;;;;4.40;4.00;;;;;;;12.07;31.61;94721.16;5024763;28;20148;-83